createdAt,value
2023-08-08T00:00:38.316Z,9.8
2023-08-08T00:15:39.242Z,9.7
2023-08-08T00:30:40.364Z,9.7
2023-08-08T00:45:40.566Z,9.6
2023-08-08T01:00:41.897Z,9.6
2023-08-08T01:15:42.167Z,9.8
2023-08-08T01:30:42.320Z,9.6
2023-08-08T01:45:42.912Z,9.2
2023-08-08T02:00:43.748Z,9.1
2023-08-08T02:15:44.465Z,9.1
2023-08-08T02:30:44.943Z,8.9
2023-08-08T02:45:46.135Z,8.8
2023-08-08T03:00:46.233Z,8.9
2023-08-08T03:15:48.018Z,8.7
2023-08-08T03:30:47.583Z,8.5
2023-08-08T03:45:48.408Z,8.1
2023-08-08T04:00:06.967Z,7.9
2023-08-08T04:15:06.761Z,7.7
2023-08-08T04:30:07.243Z,7.7
2023-08-08T04:45:07.909Z,7.9
2023-08-08T05:00:08.327Z,8
2023-08-08T05:15:08.851Z,8.3
2023-08-08T05:30:09.862Z,8.7
2023-08-08T05:45:10.727Z,9.2
2023-08-08T06:00:11.128Z,9.6
2023-08-08T06:15:12.298Z,10.1
2023-08-08T06:30:13.478Z,10.5
2023-08-08T06:45:13.509Z,11
2023-08-08T07:00:14.665Z,11.5
2023-08-08T07:15:14.857Z,12.1
2023-08-08T07:30:15.344Z,13
2023-08-08T07:45:15.922Z,13.3
2023-08-08T08:00:16.675Z,13.8
2023-08-08T08:15:17.614Z,14.4
2023-08-08T08:30:20.296Z,14.7
2023-08-08T08:45:18.652Z,14.9
2023-08-08T09:00:20.667Z,15.2
2023-08-08T09:15:20.737Z,15.7
2023-08-08T09:30:21.208Z,15.8
2023-08-08T09:45:21.467Z,16.1
2023-08-08T10:00:24.110Z,16.2
2023-08-08T10:15:25.333Z,16.5
2023-08-08T10:30:26.050Z,16.9
2023-08-08T10:45:26.242Z,17.2
2023-08-08T11:00:29.803Z,17.4
2023-08-08T11:15:30.741Z,17.8
2023-08-08T11:30:30.164Z,18.5
2023-08-08T11:45:30.690Z,18.5
2023-08-08T12:00:32.910Z,18.3
2023-08-08T12:15:32.047Z,18.9
2023-08-08T12:30:33.072Z,19.3
2023-08-08T12:45:33.324Z,18.8
2023-08-08T13:00:34.436Z,18.8
2023-08-08T13:15:34.575Z,19.2
2023-08-08T13:30:35.954Z,18.9
2023-08-08T13:45:35.876Z,18.5
2023-08-08T14:00:36.957Z,19.2
2023-08-08T14:15:36.703Z,18.8
2023-08-08T14:30:42.396Z,18.8
2023-08-08T14:45:50.402Z,19.2
2023-08-08T15:00:39.321Z,19.6
2023-08-08T15:15:39.816Z,19.5
2023-08-08T15:30:40.676Z,19.2
2023-08-08T15:45:40.524Z,19.5
2023-08-08T16:00:42.480Z,19.4
2023-08-08T16:15:42.117Z,18.7
2023-08-08T16:30:43.746Z,19.3
2023-08-08T16:45:44.584Z,19.1
2023-08-08T17:00:44.807Z,19
2023-08-08T17:15:45.032Z,19
2023-08-08T17:30:46.327Z,18.8
2023-08-08T17:45:55.937Z,18.8
2023-08-08T18:00:49.057Z,17.9
2023-08-08T18:15:48.387Z,17.4
2023-08-08T18:30:49.277Z,17.1
2023-08-08T18:45:50.645Z,16.8
2023-08-08T19:00:53.242Z,16.1
2023-08-08T19:15:50.725Z,16.2
2023-08-08T19:30:52.196Z,15.3
2023-08-08T19:45:52.989Z,15.2
2023-08-08T20:00:52.226Z,14.8
2023-08-08T20:15:53.236Z,14.3
2023-08-08T20:30:54.971Z,14.9
2023-08-08T20:45:54.832Z,13.9
2023-08-08T21:00:56.207Z,14
2023-08-08T21:15:56.272Z,14.1
2023-08-08T21:30:56.554Z,14.4
2023-08-08T21:46:06.416Z,14.4
2023-08-08T22:00:34.693Z,14.5
2023-08-08T22:15:34.562Z,14.1
2023-08-08T22:30:34.628Z,13.7
2023-08-08T22:45:35.330Z,13.5
2023-08-08T23:00:39.741Z,13.4
2023-08-08T23:15:36.380Z,13.9
2023-08-08T23:30:37.444Z,13.8
2023-08-08T23:45:39.584Z,13.1
